Time;durP1;ratioP1;P1;durP2;ratioP2;P2;SDS_P1;SDS_P2;PMS_P1;PMS_P2;Temp;Humidity;BMP_temperature;BMP_pressure;BME280_temperature;BME280_humidity;BME280_pressure;Samples;Min_cycle;Max_cycle;Signal;HPM_P1;HPM_P2
2022/03/17 00:00:34;;;;;;;1.50;1.40;;;;;;;2.92;80.17;97166.38;5114589;28;20102;-68
2022/03/17 00:02:59;;;;;;;1.50;1.40;;;;;;;2.89;80.78;97167.25;5114483;28;20076;-66
2022/03/17 00:05:25;;;;;;;2.47;1.80;;;;;;;2.94;80.98;97171.56;5114402;28;20027;-66
2022/03/17 00:07:51;;;;;;;1.85;1.75;;;;;;;2.97;80.80;97169.84;5114380;28;20022;-68
2022/03/17 00:10:17;;;;;;;1.50;1.40;;;;;;;3.02;80.49;97175.03;5114237;28;20019;-67
2022/03/17 00:12:45;;;;;;;1.52;1.42;;;;;;;3.10;80.77;97182.81;5114288;28;20384;-67
2022/03/17 00:15:11;;;;;;;1.38;1.27;;;;;;;3.08;79.77;97179.38;5114204;28;20019;-65
2022/03/17 00:17:37;;;;;;;1.50;1.40;;;;;;;2.96;78.87;97177.59;5114362;28;20024;-68
2022/03/17 00:20:07;;;;;;;1.60;1.50;;;;;;;2.96;78.61;97180.19;5113932;28;20012;-68
2022/03/17 00:22:33;;;;;;;2.17;1.98;;;;;;;2.94;79.76;97185.38;5114263;28;20488;-67
2022/03/17 00:24:58;;;;;;;2.00;1.88;;;;;;;2.90;79.26;97186.22;5114109;28;20106;-69
2022/03/17 00:27:24;;;;;;;1.90;1.80;;;;;;;2.94;79.42;97184.50;5114006;28;20062;-67
2022/03/17 00:29:50;;;;;;;1.83;1.70;;;;;;;2.93;78.64;97185.34;5113893;28;20023;-68
2022/03/17 00:32:16;;;;;;;2.00;1.80;;;;;;;2.82;78.54;97186.19;5113889;28;20027;-68
2022/03/17 00:37:26;;;;;;;3.38;2.83;;;;;;;2.69;78.72;97193.03;5113946;28;20168;-68
2022/03/17 00:39:53;;;;;;;2.90;2.60;;;;;;;2.69;78.59;97203.38;5113920;28;20103;-68
2022/03/17 00:42:19;;;;;;;3.67;2.90;;;;;;;2.67;78.96;97192.16;5113748;28;20023;-65
2022/03/17 00:44:46;;;;;;;4.05;3.08;;;;;;;2.60;79.46;97193.00;5113700;28;20024;-68
2022/03/17 00:47:15;;;;;;;3.38;3.08;;;;;;;2.56;78.10;97180.94;5113801;28;20028;-67
2022/03/17 00:49:40;;;;;;;3.30;3.00;;;;;;;2.51;77.85;97184.38;5113755;28;20027;-66
2022/03/17 00:52:10;;;;;;;3.13;2.83;;;;;;;2.49;78.29;97190.34;5113687;28;20033;-68
2022/03/17 00:54:42;;;;;;;3.50;3.13;;;;;;;2.43;78.19;97190.31;5113644;28;20031;-67
2022/03/17 00:57:09;;;;;;;4.07;3.10;;;;;;;2.33;77.97;97184.25;5113658;28;20077;-67
2022/03/17 00:59:38;;;;;;;2.97;2.67;;;;;;;2.38;78.65;97182.59;5113594;28;20054;-66
2022/03/17 01:02:05;;;;;;;2.90;2.40;;;;;;;2.37;78.38;97181.72;5113602;28;21373;-66
2022/03/17 01:04:31;;;;;;;2.90;2.60;;;;;;;2.36;77.54;97179.13;5113495;28;20466;-68
2022/03/17 01:06:57;;;;;;;4.25;3.40;;;;;;;2.32;77.17;97172.22;5113488;28;20027;-69
2022/03/17 01:09:22;;;;;;;4.57;4.00;;;;;;;2.24;77.32;97175.63;5113494;28;20042;-68
2022/03/17 01:11:48;;;;;;;4.68;4.10;;;;;;;2.23;77.74;97183.34;5116966;28;20431;-66
2022/03/17 01:14:14;;;;;;;4.70;4.20;;;;;;;2.21;77.70;97185.06;5117832;28;20512;-67
2022/03/17 01:16:40;;;;;;;5.18;4.30;;;;;;;2.18;78.12;97179.88;5117622;28;20492;-67
2022/03/17 01:19:06;;;;;;;7.43;5.38;;;;;;;2.13;77.80;97185.88;5117538;28;20027;-67
2022/03/17 01:21:32;;;;;;;8.30;6.97;;;;;;;2.13;77.15;97179.84;5117462;28;20097;-66
2022/03/17 01:23:57;;;;;;;11.85;6.93;;;;;;;2.09;76.85;97181.56;5117525;28;20102;-66
2022/03/17 01:26:23;;;;;;;9.00;7.13;;;;;;;2.10;77.51;97180.69;5117464;28;20024;-69
2022/03/17 01:28:48;;;;;;;11.55;7.20;;;;;;;2.03;77.25;97171.19;5117374;28;20024;-70
2022/03/17 01:31:14;;;;;;;10.18;7.57;;;;;;;2.04;77.98;97175.50;5117443;28;20030;-67
2022/03/17 01:33:40;;;;;;;10.13;8.00;;;;;;;1.98;77.98;97181.47;5117407;28;20051;-68
2022/03/17 01:36:06;;;;;;;12.20;7.97;;;;;;;2.07;77.94;97182.38;5117363;28;20068;-69
2022/03/17 01:38:31;;;;;;;11.93;9.13;;;;;;;2.10;77.74;97180.69;5117257;28;20028;-66
2022/03/17 01:40:57;;;;;;;15.15;11.48;;;;;;;2.00;77.55;97190.13;5117159;28;20102;-67
2022/03/17 01:43:23;;;;;;;16.05;11.57;;;;;;;2.04;77.09;97190.13;5117165;28;20035;-69
2022/03/17 01:45:52;;;;;;;17.10;11.13;;;;;;;2.02;76.97;97190.97;5117189;28;20575;-68
2022/03/17 01:48:19;;;;;;;17.42;12.10;;;;;;;1.92;76.78;97194.34;5116998;28;20422;-69
2022/03/17 01:50:45;;;;;;;18.92;13.88;;;;;;;1.82;77.60;97200.28;5117102;27;20023;-69
2022/03/17 01:53:11;;;;;;;24.48;16.80;;;;;;;1.79;78.07;97202.84;5117033;28;20160;-69
2022/03/17 01:55:37;;;;;;;22.10;15.90;;;;;;;1.80;77.39;97213.19;5116836;28;20518;-69
2022/03/17 01:58:03;;;;;;;26.33;18.00;;;;;;;1.75;77.72;97214.88;5116955;28;20517;-68
2022/03/17 02:00:28;;;;;;;27.58;16.85;;;;;;;1.81;77.96;97214.94;5116978;28;20103;-66
2022/03/17 02:02:54;;;;;;;23.63;16.20;;;;;;;1.84;77.64;97214.06;5116901;28;20023;-69
2022/03/17 02:05:20;;;;;;;31.20;20.88;;;;;;;1.89;78.07;97214.97;5116859;28;20103;-67
2022/03/17 02:07:51;;;;;;;29.80;19.25;;;;;;;1.94;77.64;97210.72;5116872;28;20066;-67
2022/03/17 02:10:18;;;;;;;31.83;19.90;;;;;;;2.03;77.70;97227.97;5116690;27;20035;-68
2022/03/17 02:15:28;;;;;;;27.13;16.92;;;;;;;2.00;77.14;97235.69;5116683;28;20030;-70
2022/03/17 02:17:54;;;;;;;24.42;17.17;;;;;;;1.99;77.70;97226.22;5116444;28;20020;-66
2022/03/17 02:20:20;;;;;;;25.17;18.27;;;;;;;2.02;76.15;97234.84;5116269;28;20528;-68
2022/03/17 02:22:50;;;;;;;29.23;18.73;;;;;;;2.06;76.48;97237.44;5116164;28;20055;-68
2022/03/17 02:25:36;;;;;;;30.20;19.63;;;;;;;2.12;75.92;97240.09;5116570;28;20023;-66
2022/03/17 02:28:07;;;;;;;31.55;20.45;;;;;;;2.16;75.57;97252.16;5116429;28;20284;-69
2022/03/17 02:30:35;;;;;;;29.10;19.42;;;;;;;2.17;76.03;97245.28;5116143;28;20481;-68
2022/03/17 02:33:07;;;;;;;31.98;21.25;;;;;;;2.26;75.55;97245.34;5116239;28;20023;-69
2022/03/17 02:35:37;;;;;;;31.55;20.52;;;;;;;2.22;75.36;97244.44;5116344;27;20030;-67
2022/03/17 02:38:04;;;;;;;;;;;;;;;2.19;74.87;97249.59;5116652;28;20027;-68
2022/03/17 02:40:31;;;;;;;35.40;20.55;;;;;;;2.15;75.37;97240.09;5116211;28;19912;-67
2022/03/17 02:42:57;;;;;;;35.25;21.50;;;;;;;2.18;75.97;97247.00;5115923;28;20020;-67
2022/03/17 02:45:22;;;;;;;35.33;23.60;;;;;;;2.23;74.80;97259.06;5116017;28;20073;-67
2022/03/17 02:47:48;;;;;;;34.58;23.15;;;;;;;2.20;75.02;97260.78;5115876;28;20026;-65
2022/03/17 02:50:14;;;;;;;39.85;23.65;;;;;;;2.25;74.97;97261.66;5115931;28;20039;-68
2022/03/17 02:52:40;;;;;;;35.22;22.83;;;;;;;2.24;75.42;97265.13;5115947;27;20028;-66
2022/03/17 02:55:08;;;;;;;41.08;25.02;;;;;;;2.24;75.34;97278.03;5115810;28;20028;-66
2022/03/17 02:57:33;;;;;;;40.13;26.10;;;;;;;2.25;74.66;97278.03;5115779;27;20020;-67
2022/03/17 02:59:59;;;;;;;41.10;24.88;;;;;;;2.21;74.50;97276.28;5115711;28;20023;-65
2022/03/17 03:02:25;;;;;;;41.33;27.67;;;;;;;2.18;75.04;97281.44;5115767;28;20023;-64
2022/03/17 03:04:51;;;;;;;44.88;27.98;;;;;;;2.13;75.80;97275.34;5114405;28;20473;-67
2022/03/17 03:07:17;;;;;;;45.47;26.13;;;;;;;2.17;75.80;97281.44;5115552;28;20110;-68
2022/03/17 03:09:42;;;;;;;49.80;30.70;;;;;;;2.12;75.52;97287.44;5115340;28;20024;-70
2022/03/17 03:12:08;;;;;;;51.63;30.85;;;;;;;2.14;75.76;97292.59;5115521;28;20031;-68
2022/03/17 03:14:34;;;;;;;54.33;31.13;;;;;;;2.19;76.03;97297.78;5115434;27;20024;-69
2022/03/17 03:16:59;;;;;;;48.97;30.50;;;;;;;2.22;75.08;97293.50;5115367;27;20084;-67
2022/03/17 03:19:26;;;;;;;55.50;32.83;;;;;;;2.18;75.08;97294.34;5115310;28;20032;-66
2022/03/17 03:21:51;;;;;;;53.45;32.17;;;;;;;2.24;75.37;97298.69;5115038;28;20548;-66
2022/03/17 03:24:17;;;;;;;51.63;32.70;;;;;;;2.27;74.71;97299.59;5115237;28;20069;-67
2022/03/17 03:26:44;;;;;;;56.80;33.78;;;;;;;2.27;74.76;97298.72;5115237;28;20027;-68
2022/03/17 03:31:46;;;;;;;51.78;32.40;;;;;;;2.24;75.07;97296.97;5115139;28;20042;-67
2022/03/17 03:34:11;;;;;;;54.22;33.17;;;;;;;2.18;75.04;97304.66;5114267;28;20020;-67
2022/03/17 03:39:21;;;;;;;54.00;33.40;;;;;;;2.19;74.72;97308.97;5115067;28;20112;-67
2022/03/17 03:41:47;;;;;;;47.20;32.17;;;;;;;2.11;74.93;97308.91;5114911;27;20107;-67
2022/03/17 03:44:15;;;;;;;54.85;33.38;;;;;;;2.07;75.14;97312.31;5114782;28;20024;-66
2022/03/17 03:46:41;;;;;;;52.25;32.95;;;;;;;2.07;75.24;97311.44;5114750;28;20111;-67
2022/03/17 03:49:07;;;;;;;50.20;30.10;;;;;;;1.98;75.51;97309.66;5114634;28;20107;-66
2022/03/17 03:51:33;;;;;;;51.75;30.95;;;;;;;1.97;75.55;97316.56;5113472;28;20031;-66
2022/03/17 03:54:14;;;;;;;48.70;28.50;;;;;;;1.85;74.90;97299.25;5114832;28;20031;-65
2022/03/17 03:56:44;;;;;;;48.05;29.33;;;;;;;1.87;74.60;97310.44;5114569;28;20026;-70
2022/03/17 03:59:31;;;;;;;;;;;;;;;1.87;74.68;97323.34;5115087;28;20466;-65
2022/03/17 04:01:59;;;;;;;44.58;28.52;;;;;;;1.88;74.58;97329.38;5114311;28;19919;-66
2022/03/17 04:04:26;;;;;;;49.22;30.25;;;;;;;1.87;75.54;97338.81;5114437;28;20026;-64
2022/03/17 04:06:55;;;;;;;50.92;30.33;;;;;;;1.95;75.25;97354.38;5114431;28;20031;-65
2022/03/17 04:09:28;;;;;;;47.65;30.33;;;;;;;1.96;75.37;97344.94;5114322;28;20023;-67
2022/03/17 04:11:54;;;;;;;48.17;28.63;;;;;;;1.94;75.36;97346.63;5114414;28;20023;-64
2022/03/17 04:14:20;;;;;;;48.28;30.38;;;;;;;1.88;75.53;97338.00;5114228;28;20027;-68
2022/03/17 04:16:47;;;;;;;49.85;29.80;;;;;;;1.86;74.96;97343.97;5114278;28;20024;-67
2022/03/17 04:19:15;;;;;;;51.17;32.55;;;;;;;1.88;75.67;97355.19;5114229;28;20031;-67
2022/03/17 04:21:42;;;;;;;47.00;28.02;;;;;;;1.87;74.83;97364.63;5113848;28;20145;-69
2022/03/17 04:24:07;;;;;;;53.65;30.13;;;;;;;1.88;75.49;97370.66;5114053;28;20043;-68
2022/03/17 04:26:33;;;;;;;49.75;30.08;;;;;;;1.81;75.74;97371.44;5114144;28;20538;-70
2022/03/17 04:28:59;;;;;;;56.75;33.08;;;;;;;1.74;75.45;97371.38;5114011;28;20169;-69
2022/03/17 04:31:24;;;;;;;54.20;31.27;;;;;;;1.67;75.37;97379.91;5113980;28;20024;-67
2022/03/17 04:33:51;;;;;;;52.63;31.05;;;;;;;1.68;75.63;97384.22;5113892;28;20015;-64
2022/03/17 04:36:17;;;;;;;52.10;31.85;;;;;;;1.67;75.82;97379.03;5113991;28;20030;-66
2022/03/17 04:38:43;;;;;;;49.70;31.42;;;;;;;1.60;76.14;97384.13;5113845;28;20026;-68
2022/03/17 04:41:12;;;;;;;57.42;32.03;;;;;;;1.61;76.50;97388.44;5113916;28;20016;-67
2022/03/17 04:43:39;;;;;;;50.45;29.83;;;;;;;1.60;76.50;97381.53;5113755;28;20041;-67
2022/03/17 04:46:07;;;;;;;49.55;30.60;;;;;;;1.61;76.59;97379.84;5113786;28;20027;-67
2022/03/17 04:48:33;;;;;;;60.60;30.95;;;;;;;1.64;76.59;97387.63;5113648;28;20028;-66
2022/03/17 04:50:59;;;;;;;48.97;28.38;;;;;;;1.63;76.76;97376.41;5113700;28;20072;-68
2022/03/17 04:53:27;;;;;;;46.45;28.73;;;;;;;1.70;76.30;97382.53;5113652;28;20019;-68
2022/03/17 04:56:05;;;;;;;50.05;29.88;;;;;;;1.71;76.49;97380.78;5113586;28;20015;-69
2022/03/17 04:58:32;;;;;;;50.20;29.17;;;;;;;1.76;76.19;97392.91;5113677;28;20031;-69
2022/03/17 05:01:00;;;;;;;52.22;29.38;;;;;;;1.78;75.93;97400.69;5113623;28;20031;-68
2022/03/17 05:03:26;;;;;;;49.15;29.42;;;;;;;1.72;75.50;97401.44;5112345;28;20389;-68
2022/03/17 05:05:52;;;;;;;54.92;31.67;;;;;;;1.77;75.62;97411.81;5113566;28;20020;-69
2022/03/17 05:08:18;;;;;;;46.85;29.55;;;;;;;1.81;75.97;97415.31;5113637;28;20099;-67
2022/03/17 05:10:44;;;;;;;47.25;28.58;;;;;;;1.86;75.57;97403.31;5113365;28;20186;-68
2022/03/17 05:13:11;;;;;;;51.28;29.38;;;;;;;2.16;74.75;97411.38;5113474;28;20016;-67
2022/03/17 05:15:37;;;;;;;47.45;28.55;;;;;;;2.46;73.82;97415.94;5113616;28;20026;-67
2022/03/17 05:18:07;;;;;;;43.72;28.38;;;;;;;2.67;72.84;97419.53;5113533;28;20046;-67
2022/03/17 05:20:35;;;;;;;33.50;20.83;;;;;;;2.81;71.91;97411.91;5113208;28;20055;-67
2022/03/17 05:23:04;;;;;;;42.75;27.55;;;;;;;2.87;71.13;97411.06;5113344;28;20035;-66
2022/03/17 05:25:31;;;;;;;46.25;27.00;;;;;;;2.71;71.12;97421.28;5113322;28;20053;-67
2022/03/17 05:27:57;;;;;;;39.83;24.88;;;;;;;2.52;71.68;97433.19;5113436;28;20500;-70
2022/03/17 05:30:22;;;;;;;46.60;26.15;;;;;;;2.38;72.30;97444.28;5113205;28;20050;-66
2022/03/17 05:32:48;;;;;;;43.85;24.42;;;;;;;2.20;72.81;97442.38;5113294;28;20504;-68
2022/03/17 05:35:16;;;;;;;41.70;24.40;;;;;;;2.14;73.50;97444.91;5113344;28;20100;-67
2022/03/17 05:37:42;;;;;;;45.03;26.05;;;;;;;2.14;73.37;97450.94;5113274;28;20027;-65
2022/03/17 05:40:16;;;;;;;37.38;24.40;;;;;;;2.10;73.82;97449.19;5113347;28;20366;-67
2022/03/17 05:42:43;;;;;;;37.83;23.13;;;;;;;2.09;73.71;97456.91;5113320;28;20027;-66
2022/03/17 05:45:10;;;;;;;44.30;25.95;;;;;;;2.05;74.16;97455.16;5113186;28;20020;-66
2022/03/17 05:47:36;;;;;;;42.70;25.23;;;;;;;2.07;73.98;97464.63;5113143;28;20022;-69
2022/03/17 05:50:04;;;;;;;39.80;22.65;;;;;;;2.06;73.82;97467.19;5113032;28;20019;-67
2022/03/17 05:52:30;;;;;;;37.15;23.05;;;;;;;2.11;73.76;97466.38;5113108;28;20102;-68
2022/03/17 05:54:56;;;;;;;42.88;24.33;;;;;;;2.13;73.28;97467.28;5113113;28;20488;-68
2022/03/17 05:57:21;;;;;;;35.10;22.25;;;;;;;2.25;72.83;97471.72;5115558;28;20026;-67
2022/03/17 05:59:47;;;;;;;36.03;21.35;;;;;;;2.36;72.60;97487.31;5116974;28;20039;-67
2022/03/17 06:02:13;;;;;;;38.97;21.90;;;;;;;2.52;71.99;97484.88;5116929;28;20115;-68
2022/03/17 06:04:40;;;;;;;39.42;21.20;;;;;;;2.62;72.23;97488.41;5116857;28;20027;-67
2022/03/17 06:07:06;;;;;;;32.38;21.48;;;;;;;2.71;71.02;97487.63;5116821;28;20500;-66
2022/03/17 06:09:32;;;;;;;32.30;19.05;;;;;;;2.78;69.88;97492.88;5116710;27;20024;-68
2022/03/17 06:11:57;;;;;;;30.27;19.33;;;;;;;2.84;70.46;97496.34;5116620;28;20024;-67
2022/03/17 06:14:24;;;;;;;30.13;18.33;;;;;;;2.80;70.23;97494.59;5116608;28;20031;-67
2022/03/17 06:16:50;;;;;;;28.48;18.30;;;;;;;2.90;71.13;97497.28;5116560;28;20047;-67
2022/03/17 06:19:16;;;;;;;32.03;17.00;;;;;;;3.02;69.07;97504.25;5116614;28;20384;-66
2022/03/17 06:21:42;;;;;;;26.23;16.92;;;;;;;3.08;69.20;97508.59;5116455;28;20051;-69
2022/03/17 06:24:07;;;;;;;30.20;16.58;;;;;;;3.12;69.52;97501.72;5116324;28;20024;-67
2022/03/17 06:26:33;;;;;;;24.63;15.85;;;;;;;3.16;69.05;97514.69;5116427;28;20104;-68
2022/03/17 06:28:59;;;;;;;27.95;17.05;;;;;;;3.25;68.92;97521.63;5116274;28;20023;-66
2022/03/17 06:31:24;;;;;;;25.80;16.48;;;;;;;3.31;68.99;97527.72;5116375;28;20054;-70
2022/03/17 06:33:50;;;;;;;24.67;15.80;;;;;;;3.42;68.64;97520.88;5116295;28;20377;-66
2022/03/17 06:36:15;;;;;;;28.13;15.82;;;;;;;3.55;68.13;97524.41;5116265;27;20106;-69
2022/03/17 06:38:41;;;;;;;23.90;14.93;;;;;;;3.70;67.40;97539.16;5116145;28;20023;-69
2022/03/17 06:41:07;;;;;;;18.67;13.05;;;;;;;3.90;66.83;97541.88;5116053;28;20071;-66
2022/03/17 06:43:32;;;;;;;20.45;13.45;;;;;;;3.95;65.34;97551.38;5116096;28;20020;-69
2022/03/17 06:46:00;;;;;;;19.92;13.73;;;;;;;4.02;66.23;97546.22;5116005;28;20060;-67
2022/03/17 06:48:26;;;;;;;19.05;12.73;;;;;;;4.08;65.03;97555.75;5115923;28;20028;-68
2022/03/17 06:50:51;;;;;;;15.80;11.50;;;;;;;4.08;64.68;97552.28;5115770;28;20427;-67
2022/03/17 06:53:17;;;;;;;20.00;12.48;;;;;;;4.10;65.62;97554.03;5115880;28;20024;-67
2022/03/17 06:55:43;;;;;;;20.25;13.95;;;;;;;4.22;65.37;97552.34;5115917;28;20369;-68
2022/03/17 06:58:08;;;;;;;17.90;12.13;;;;;;;4.32;63.79;97555.81;5115824;28;20103;-66
2022/03/17 07:00:34;;;;;;;19.17;11.55;;;;;;;4.15;62.63;97557.50;5115765;28;20027;-69
2022/03/17 07:02:59;;;;;;;16.20;11.02;;;;;;;4.21;63.20;97558.41;5115650;28;20026;-67
2022/03/17 07:05:25;;;;;;;17.70;11.98;;;;;;;4.35;63.57;97559.31;5115722;28;20484;-66
2022/03/17 07:07:51;;;;;;;16.48;11.20;;;;;;;4.48;62.35;97561.94;5114462;28;20077;-67
2022/03/17 07:10:16;;;;;;;16.17;11.10;;;;;;;4.74;62.58;97564.59;5115571;28;20427;-66
2022/03/17 07:12:43;;;;;;;16.38;10.48;;;;;;;5.18;60.10;97569.81;5115372;28;20024;-65
2022/03/17 07:15:10;;;;;;;16.35;10.15;;;;;;;5.29;59.87;97564.59;5115329;28;20359;-66
2022/03/17 07:17:39;;;;;;;16.10;11.10;;;;;;;5.11;60.33;97575.84;5115508;28;20062;-66
2022/03/17 07:20:09;;;;;;;16.85;10.65;;;;;;;4.92;59.50;97578.44;5115194;28;20040;-66
2022/03/17 07:22:35;;;;;;;12.77;8.82;;;;;;;4.86;60.96;97575.81;5115422;28;20115;-67
2022/03/17 07:25:02;;;;;;;14.95;11.30;;;;;;;4.98;60.02;97585.34;5115485;28;20533;-70
2022/03/17 07:27:29;;;;;;;15.20;10.45;;;;;;;5.10;58.86;97579.31;5115108;28;20393;-66
2022/03/17 07:29:55;;;;;;;15.25;11.38;;;;;;;5.17;58.68;97581.91;5115014;28;20031;-66
2022/03/17 07:32:22;;;;;;;16.00;10.85;;;;;;;5.28;61.21;97586.22;5115277;27;20032;-67
2022/03/17 07:34:49;;;;;;;13.68;9.95;;;;;;;5.31;58.35;97581.94;5115310;28;20388;-68
2022/03/17 07:37:17;;;;;;;15.27;9.43;;;;;;;5.31;57.10;97573.25;5115358;28;20096;-69
2022/03/17 07:39:44;;;;;;;13.48;9.57;;;;;;;5.17;57.99;97579.31;5115050;28;20043;-67
2022/03/17 07:42:09;;;;;;;13.85;10.20;;;;;;;5.24;58.63;97589.69;5114867;28;20377;-67
2022/03/17 07:44:37;;;;;;;13.35;10.23;;;;;;;5.27;58.78;97587.94;5114835;28;20047;-68
2022/03/17 07:47:04;;;;;;;13.23;10.40;;;;;;;5.35;57.50;97590.56;5114775;28;20032;-68
2022/03/17 07:49:31;;;;;;;13.52;9.57;;;;;;;5.30;57.62;97590.56;5114810;28;20435;-66
2022/03/17 07:51:57;;;;;;;13.55;10.20;;;;;;;5.30;57.71;97592.31;5114747;28;20046;-69
2022/03/17 07:54:23;;;;;;;14.85;10.60;;;;;;;5.40;59.44;97586.25;5114649;28;20499;-67
2022/03/17 07:56:49;;;;;;;14.95;11.27;;;;;;;5.35;58.04;97590.56;5114659;27;20098;-69
2022/03/17 07:59:16;;;;;;;16.08;11.32;;;;;;;5.29;57.57;97601.81;5114428;28;20509;-69
2022/03/17 08:01:42;;;;;;;15.43;12.02;;;;;;;5.22;59.42;97602.66;5114454;28;20019;-65
2022/03/17 08:04:08;;;;;;;16.98;11.95;;;;;;;5.09;58.77;97600.94;5114475;28;20027;-66
2022/03/17 08:06:34;;;;;;;15.15;12.18;;;;;;;5.21;59.80;97603.50;5114930;28;20016;-65
2022/03/17 08:08:59;;;;;;;14.65;11.25;;;;;;;5.22;60.62;97601.78;5114281;28;20023;-66
2022/03/17 08:11:25;;;;;;;15.50;11.40;;;;;;;5.15;59.99;97604.38;5114273;28;20031;-67
2022/03/17 08:13:51;;;;;;;16.40;11.68;;;;;;;5.17;59.89;97606.97;5114433;28;20380;-67
2022/03/17 08:16:16;;;;;;;16.17;11.95;;;;;;;5.18;59.73;97606.97;5114236;28;20072;-68
2022/03/17 08:18:42;;;;;;;15.48;12.50;;;;;;;5.13;60.29;97608.72;5114214;27;20019;-70
2022/03/17 08:21:08;;;;;;;16.08;11.60;;;;;;;5.24;58.82;97613.91;5113649;28;20050;-66
2022/03/17 08:23:34;;;;;;;15.30;11.98;;;;;;;5.30;59.13;97615.66;5114096;28;20020;-67
2022/03/17 08:26:01;;;;;;;14.35;10.57;;;;;;;5.35;59.76;97618.22;5113973;28;20028;-68
2022/03/17 08:28:27;;;;;;;15.25;10.45;;;;;;;5.30;59.14;97624.28;5113976;28;20027;-68
2022/03/17 08:30:53;;;;;;;13.32;10.68;;;;;;;5.47;59.62;97623.44;5113953;28;20157;-68
2022/03/17 08:33:19;;;;;;;15.57;11.23;;;;;;;5.71;58.14;97629.47;5113865;28;20029;-69
2022/03/17 08:35:46;;;;;;;13.85;10.43;;;;;;;5.86;58.55;97630.31;5113911;28;20043;-65
2022/03/17 08:38:12;;;;;;;12.27;9.95;;;;;;;5.94;59.05;97625.97;5113901;27;20043;-67
2022/03/17 08:40:40;;;;;;;17.70;11.82;;;;;;;6.41;61.42;97633.69;5113880;28;20026;-67
2022/03/17 08:43:10;;;;;;;11.90;9.57;;;;;;;6.82;55.34;97630.03;5113832;28;20039;-69
2022/03/17 08:51:05;;;;;;;11.75;9.80;;;;;;;7.22;53.73;97630.63;5113713;28;20084;-69
2022/03/17 08:53:31;;;;;;;13.00;9.32;;;;;;;7.35;54.36;97634.03;5113681;28;20028;-66
2022/03/17 08:55:57;;;;;;;12.52;10.05;;;;;;;7.48;54.03;97637.38;5113582;27;20034;-70
2022/03/17 08:58:23;;;;;;;11.68;9.18;;;;;;;7.39;52.28;97627.91;5113629;28;20020;-65
2022/03/17 09:00:50;;;;;;;12.93;9.73;;;;;;;7.23;52.63;97641.91;5113593;28;20027;-68
2022/03/17 09:03:16;;;;;;;10.00;8.98;;;;;;;7.35;53.30;97638.34;5113454;28;20073;-65
2022/03/17 09:05:41;;;;;;;11.63;8.65;;;;;;;7.33;52.60;97651.38;5113599;28;20412;-68
2022/03/17 09:08:08;;;;;;;11.13;8.57;;;;;;;7.24;52.92;97638.41;5113615;28;20130;-69
2022/03/17 09:10:35;;;;;;;10.68;8.70;;;;;;;7.30;52.13;97636.66;5113476;28;20043;-66
2022/03/17 09:13:07;;;;;;;10.82;9.02;;;;;;;7.44;52.71;97639.13;5113535;28;20574;-69
2022/03/17 09:15:40;;;;;;;14.38;9.60;;;;;;;7.51;53.78;97647.78;5113559;28;20080;-66
2022/03/17 09:18:08;;;;;;;10.45;8.30;;;;;;;7.27;52.54;97641.88;5113420;28;20035;-68
2022/03/17 09:20:34;;;;;;;10.35;7.95;;;;;;;6.94;52.95;97651.63;5113071;28;20043;-65
2022/03/17 09:23:01;;;;;;;10.45;8.07;;;;;;;6.61;53.75;97658.72;5113355;28;20122;-69
2022/03/17 09:25:28;;;;;;;10.75;8.10;;;;;;;6.32;53.63;97660.53;5113453;28;20149;-69
2022/03/17 09:27:54;;;;;;;10.15;7.80;;;;;;;6.41;55.37;97647.53;5113417;28;20027;-66
2022/03/17 09:30:20;;;;;;;10.10;7.53;;;;;;;6.38;54.46;97654.47;5113286;28;20472;-66
2022/03/17 09:32:46;;;;;;;10.02;7.63;;;;;;;6.53;55.02;97651.81;5116645;28;20076;-69
2022/03/17 09:35:12;;;;;;;8.50;6.70;;;;;;;6.73;56.19;97655.19;5117534;28;20444;-66
2022/03/17 09:37:38;;;;;;;8.20;6.95;;;;;;;6.81;54.15;97651.69;5117286;28;20034;-68
2022/03/17 09:40:06;;;;;;;8.20;7.10;;;;;;;6.85;52.55;97655.16;5117405;27;20023;-69
2022/03/17 09:42:32;;;;;;;9.15;7.13;;;;;;;6.89;52.71;97662.03;5117293;28;20489;-66
2022/03/17 09:44:57;;;;;;;8.13;6.68;;;;;;;6.87;53.31;97653.41;5117169;28;20051;-65
2022/03/17 09:47:27;;;;;;;8.48;6.80;;;;;;;6.99;53.35;97659.41;5117122;27;20023;-68
2022/03/17 09:49:56;;;;;;;9.30;7.40;;;;;;;7.06;52.82;97667.19;5116945;28;20428;-69
2022/03/17 09:52:23;;;;;;;8.02;6.38;;;;;;;7.00;50.96;97667.19;5117033;27;20260;-67
2022/03/17 09:54:50;;;;;;;10.27;7.43;;;;;;;6.87;50.89;97663.81;5117110;27;20096;-69
2022/03/17 09:57:16;;;;;;;7.85;6.28;;;;;;;6.92;53.57;97661.16;5117036;28;20034;-70
2022/03/17 09:59:49;;;;;;;8.77;6.57;;;;;;;6.79;52.02;97663.84;5116812;28;20465;-68
2022/03/17 10:02:17;;;;;;;9.57;6.55;;;;;;;6.82;52.94;97662.97;5116861;28;20370;-69
2022/03/17 10:04:50;;;;;;;8.30;6.50;;;;;;;6.83;53.27;97664.69;5116782;28;20462;-68
2022/03/17 10:07:17;;;;;;;8.40;6.18;;;;;;;6.83;51.74;97668.16;5116809;28;20024;-65
2022/03/17 10:09:44;;;;;;;9.00;6.78;;;;;;;6.90;50.81;97660.31;5116720;28;20028;-66
2022/03/17 10:12:12;;;;;;;8.70;6.32;;;;;;;6.79;52.38;97663.84;5116613;28;20491;-67
2022/03/17 10:14:43;;;;;;;9.05;6.93;;;;;;;6.69;51.85;97663.00;5116600;28;20020;-66
2022/03/17 10:17:39;;;;;;;8.48;6.70;;;;;;;6.59;50.62;97671.72;5117047;28;20032;-68
2022/03/17 10:20:34;;;;;;;10.20;6.72;;;;;;;6.47;50.95;97664.81;5113890;28;20047;-65
2022/03/17 10:23:03;;;;;;;8.35;6.82;;;;;;;6.39;51.64;97674.41;5116562;28;20038;-66
2022/03/17 10:25:34;;;;;;;10.57;7.72;;;;;;;6.34;53.01;97674.41;5116375;28;20103;-66
2022/03/17 10:28:01;;;;;;;8.00;6.47;;;;;;;6.20;52.75;97687.44;5116553;28;20019;-66
2022/03/17 10:30:33;;;;;;;7.78;6.97;;;;;;;6.14;54.85;97670.13;5116234;28;20479;-65
2022/03/17 10:33:15;;;;;;;10.75;6.60;;;;;;;6.03;53.35;97683.13;5115273;28;20059;-66
2022/03/17 10:35:45;;;;;;;9.20;6.72;;;;;;;5.78;53.14;97680.53;5116424;28;20051;-66
2022/03/17 10:38:16;;;;;;;8.25;6.10;;;;;;;5.84;54.77;97682.25;5116166;28;20465;-67
2022/03/17 10:40:43;;;;;;;8.85;5.57;;;;;;;5.92;54.39;97674.47;5116106;28;20036;-66
2022/03/17 10:43:18;;;;;;;4.05;3.50;;;;;;;5.10;61.91;97717.66;5116098;28;20031;-68
2022/03/17 10:45:45;;;;;;;5.25;4.03;;;;;;;4.45;65.60;97710.47;5116071;28;20022;-69
2022/03/17 10:48:11;;;;;;;4.82;3.38;;;;;;;4.06;67.23;97702.47;5114798;28;20020;-68
2022/03/17 10:50:42;;;;;;;5.95;3.83;;;;;;;3.64;69.14;97697.88;5115830;28;20077;-69
2022/03/17 10:53:09;;;;;;;4.60;3.40;;;;;;;3.48;70.59;97704.63;5116195;28;20028;-68
2022/03/17 10:55:36;;;;;;;6.65;3.78;;;;;;;3.46;71.03;97695.97;5115937;28;20016;-67
2022/03/17 10:58:17;;;;;;;4.40;3.33;;;;;;;3.54;71.32;97698.66;5115789;28;20023;-67
2022/03/17 11:00:53;;;;;;;4.75;3.65;;;;;;;3.36;72.27;97695.03;5115797;27;20024;-68
2022/03/17 11:03:20;;;;;;;4.40;3.47;;;;;;;3.28;72.47;97709.59;5115758;28;20051;-65
2022/03/17 11:05:51;;;;;;;5.70;3.05;;;;;;;3.17;73.08;97706.94;5115753;28;20030;-67
2022/03/17 11:08:21;;;;;;;3.63;3.20;;;;;;;3.27;73.93;97711.34;5115704;28;20023;-69
2022/03/17 11:10:47;;;;;;;4.63;3.50;;;;;;;3.37;73.28;97699.34;5115590;28;20400;-65
2022/03/17 11:13:13;;;;;;;6.18;3.85;;;;;;;3.47;74.97;97696.84;5115461;28;20436;-67
2022/03/17 11:15:45;;;;;;;5.03;3.67;;;;;;;3.70;73.72;97707.41;5115703;28;20016;-67
2022/03/17 11:18:23;;;;;;;4.07;2.97;;;;;;;3.82;72.46;97706.63;5115621;28;20088;-67
2022/03/17 11:20:48;;;;;;;4.10;3.33;;;;;;;3.88;70.98;97714.44;5115359;28;20071;-68
2022/03/17 11:23:16;;;;;;;3.20;2.72;;;;;;;3.89;71.54;97715.31;5115356;28;20490;-66
2022/03/17 11:25:50;;;;;;;3.05;2.75;;;;;;;3.81;72.91;97711.78;5115589;28;20419;-67
2022/03/17 11:28:16;;;;;;;3.95;3.08;;;;;;;3.84;73.43;97712.69;5115270;27;20059;-68
2022/03/17 11:30:44;;;;;;;2.67;2.38;;;;;;;3.53;72.42;97705.53;5115378;28;20419;-70
2022/03/17 11:33:31;;;;;;;3.03;2.38;;;;;;;3.43;73.35;97720.97;5115132;28;20084;-66
2022/03/17 11:36:10;;;;;;;4.35;2.20;;;;;;;3.40;73.26;97716.63;5115086;28;20028;-67
2022/03/17 11:38:39;;;;;;;2.85;2.47;;;;;;;3.26;73.52;97714.78;5114955;28;20039;-67
2022/03/17 11:41:16;;;;;;;2.42;2.10;;;;;;;3.02;75.07;97721.44;5114958;28;20024;-66
2022/03/17 11:43:42;;;;;;;2.30;2.08;;;;;;;2.85;74.64;97712.59;5115040;27;20023;-68
2022/03/17 11:46:17;;;;;;;3.38;2.10;;;;;;;2.87;74.76;97716.09;5114890;28;20489;-68
2022/03/17 11:48:45;;;;;;;3.00;2.03;;;;;;;2.84;75.07;97711.75;5114808;27;20424;-67